Main page
METAR-TAF:

METAR-TAF

Airports :

Laupheim Air Base

Laupheim, Germany

latitude: 48-13N, longitude: 009-55E, elevation: 538 m

Current weather observation

The report was made 1 hour and 14 minutes ago, at 06:20 UTC
Wind 7 kt from the West/Southwest
Temperature 14°C
Humidity 63%
Pressure 1023 hPa
Visibility 10 km or more
Broken clouds at a height of 32000 ft

METAR: ETHL 140620Z 24007KT 9999 BKN320 14/07 Q1023 BLU+

Time: 09:34 (07:34 UTC)


TAF: missing

Weather observations and forecasts of more than 4000 airports (METAR and TAF reports).

The available stations are represented by yellow and red dots on the map.

Hover mouse over dot to see the name of the station.

Then click to see weather observations and forecasts.

To change the map : click on the green buttons with a black cross to zoom in, on the green button with a dash to zoom out, or on the green arrows for adjacent maps.


METAR-TAF: